Time;durP1;ratioP1;P1;durP2;ratioP2;P2;SDS_P1;SDS_P2;PMS_P1;PMS_P2;Temp;Humidity;BMP_temperature;BMP_pressure;BME280_temperature;BME280_humidity;BME280_pressure;Samples;Min_cycle;Max_cycle;Signal;HPM_P1;HPM_P2
2021/05/14 00:01:02;;;;;;;2.88;1.98;;;10.60;99.90;;;;;;4924887;29;20111;-65
2021/05/14 00:03:29;;;;;;;6.40;1.70;;;10.60;99.90;;;;;;4921807;29;20060;-65
2021/05/14 00:05:56;;;;;;;5.43;2.30;;;10.60;99.90;;;;;;4915837;29;20051;-65
2021/05/14 00:08:23;;;;;;;1.67;1.58;;;10.50;99.90;;;;;;4924838;29;20124;-65
2021/05/14 00:10:51;;;;;;;2.45;1.55;;;10.50;99.90;;;;;;4927120;29;20071;-65
2021/05/14 00:13:18;;;;;;;4.95;2.47;;;10.50;99.90;;;;;;4926305;29;20050;-65
2021/05/14 00:15:45;;;;;;;3.17;1.63;;;10.50;99.90;;;;;;4928956;29;20561;-65
2021/05/14 00:18:13;;;;;;;3.05;1.85;;;10.40;99.90;;;;;;4927689;29;20047;-65
2021/05/14 00:20:46;;;;;;;1.80;1.70;;;10.40;99.90;;;;;;4924814;28;20491;-65
2021/05/14 00:23:13;;;;;;;2.35;1.92;;;10.40;99.90;;;;;;4932107;28;20067;-65
2021/05/14 00:25:40;;;;;;;1.63;1.50;;;10.40;99.90;;;;;;4924543;29;20047;-65
2021/05/14 00:28:07;;;;;;;3.97;2.47;;;10.30;99.90;;;;;;4925707;29;20094;-65
2021/05/14 00:30:34;;;;;;;5.53;1.80;;;10.30;99.90;;;;;;4927015;29;20055;-65
2021/05/14 00:33:01;;;;;;;4.80;1.50;;;10.30;99.90;;;;;;4926347;29;20039;-65
2021/05/14 00:35:28;;;;;;;2.67;1.67;;;10.30;99.90;;;;;;4926127;29;20485;-65
2021/05/14 00:37:55;;;;;;;5.18;2.08;;;10.20;99.90;;;;;;4923638;29;20048;-65
2021/05/14 00:40:22;;;;;;;4.03;1.90;;;10.20;99.90;;;;;;4916520;29;20108;-65
2021/05/14 00:42:49;;;;;;;3.25;1.90;;;10.10;99.90;;;;;;4933553;29;20051;-65
2021/05/14 00:45:16;;;;;;;2.50;2.08;;;10.10;99.90;;;;;;4928280;28;20051;-65
2021/05/14 00:47:43;;;;;;;3.13;1.98;;;10.00;99.90;;;;;;4926875;29;20067;-65
2021/05/14 00:50:11;;;;;;;4.28;1.52;;;10.00;99.90;;;;;;4930899;29;20114;-65
2021/05/14 00:52:38;;;;;;;2.78;2.15;;;10.00;99.90;;;;;;4923898;29;20189;-65
2021/05/14 00:55:06;;;;;;;3.53;2.00;;;9.90;99.90;;;;;;4926881;28;20043;-65
2021/05/14 00:57:34;;;;;;;4.18;1.92;;;9.80;99.90;;;;;;4925411;29;20044;-65
2021/05/14 01:00:01;;;;;;;2.60;2.38;;;9.80;99.90;;;;;;4927649;29;20079;-65
2021/05/14 01:02:28;;;;;;;2.70;1.58;;;9.80;99.90;;;;;;4924425;29;20047;-65
2021/05/14 01:04:56;;;;;;;3.17;2.55;;;9.80;99.90;;;;;;4928838;29;20055;-65
2021/05/14 01:07:22;;;;;;;3.97;2.97;;;9.80;99.90;;;;;;4924026;29;20048;-65
2021/05/14 01:09:50;;;;;;;2.53;2.25;;;9.80;99.90;;;;;;4927364;28;20040;-65
2021/05/14 01:12:17;;;;;;;1.80;1.70;;;9.70;99.90;;;;;;4924981;29;20059;-65
2021/05/14 01:14:44;;;;;;;2.80;2.60;;;9.60;99.90;;;;;;4928437;29;20048;-65
2021/05/14 01:17:11;;;;;;;3.30;2.97;;;9.60;99.90;;;;;;4927274;29;20040;-65
2021/05/14 01:19:38;;;;;;;7.25;4.00;;;9.50;99.90;;;;;;4919772;29;20534;-65
2021/05/14 01:22:06;;;;;;;2.90;2.58;;;9.40;99.90;;;;;;4924482;28;20047;-65
2021/05/14 01:24:33;;;;;;;2.60;2.38;;;9.40;99.90;;;;;;4927348;29;20047;-65
2021/05/14 01:27:01;;;;;;;3.60;2.92;;;9.30;99.90;;;;;;4923084;28;20122;-65
2021/05/14 01:29:28;;;;;;;3.47;3.17;;;9.30;99.90;;;;;;4924382;29;20055;-65
2021/05/14 01:31:55;;;;;;;6.13;3.10;;;9.30;99.90;;;;;;4927900;28;20048;-65
2021/05/14 01:34:23;;;;;;;4.63;2.08;;;9.20;99.90;;;;;;4927036;28;20056;-65
2021/05/14 01:36:50;;;;;;;3.40;2.47;;;9.20;99.90;;;;;;4929234;29;20047;-65
2021/05/14 01:39:22;;;;;;;3.80;3.42;;;9.20;99.90;;;;;;4941519;28;20086;-65
2021/05/14 01:41:53;;;;;;;3.22;2.92;;;9.10;99.90;;;;;;4923357;29;20047;-65
2021/05/14 01:44:22;;;;;;;2.58;2.33;;;9.10;99.90;;;;;;4927602;29;20170;-65
2021/05/14 01:46:50;;;;;;;2.90;2.50;;;9.10;99.90;;;;;;4923568;29;20057;-65
2021/05/14 01:49:18;;;;;;;4.95;2.63;;;9.00;99.90;;;;;;4921876;29;20507;-65
2021/05/14 01:51:45;;;;;;;2.95;2.50;;;9.00;99.90;;;;;;4926604;29;20058;-65
2021/05/14 01:54:12;;;;;;;4.15;3.10;;;8.90;99.90;;;;;;4923407;29;20051;-65
2021/05/14 01:56:43;;;;;;;5.43;2.70;;;8.80;99.90;;;;;;4927599;29;20526;-65
2021/05/14 01:59:09;;;;;;;;;;;8.80;99.90;;;;;;4936849;29;20130;-65
2021/05/14 02:01:36;;;;;;;7.32;3.25;;;8.80;99.90;;;;;;4924330;29;19922;-65
2021/05/14 02:04:03;;;;;;;4.60;2.53;;;8.70;99.90;;;;;;4925431;29;20052;-65
2021/05/14 02:06:30;;;;;;;4.88;2.78;;;8.60;99.90;;;;;;4920916;29;20098;-65
2021/05/14 02:09:04;;;;;;;4.05;2.95;;;8.60;99.90;;;;;;4915246;29;20498;-65
2021/05/14 02:11:31;;;;;;;4.25;3.13;;;8.60;99.90;;;;;;4922692;29;20532;-65
2021/05/14 02:13:58;;;;;;;5.18;3.50;;;8.50;99.90;;;;;;4922577;29;20138;-65
2021/05/14 02:16:26;;;;;;;4.80;3.53;;;8.50;99.90;;;;;;4920916;29;20051;-65
2021/05/14 02:18:53;;;;;;;6.47;4.00;;;8.50;99.90;;;;;;4924632;29;20066;-65
2021/05/14 02:21:20;;;;;;;4.45;3.70;;;8.50;99.90;;;;;;4923787;29;20055;-65
2021/05/14 02:23:47;;;;;;;4.93;4.15;;;8.50;99.90;;;;;;4925948;29;20043;-64
2021/05/14 02:26:14;;;;;;;5.80;4.10;;;8.50;99.90;;;;;;4920593;29;20040;-66
2021/05/14 02:28:41;;;;;;;5.03;4.60;;;8.50;99.90;;;;;;4920324;29;20079;-65
2021/05/14 02:31:08;;;;;;;5.00;3.85;;;8.40;99.90;;;;;;4929392;29;20045;-65
2021/05/14 02:33:35;;;;;;;7.13;5.15;;;8.40;99.90;;;;;;4927227;29;20106;-65
2021/05/14 02:36:02;;;;;;;4.57;4.05;;;8.40;99.90;;;;;;4921552;29;20138;-65
2021/05/14 02:38:29;;;;;;;6.38;5.15;;;8.40;99.90;;;;;;4924824;29;20202;-65
2021/05/14 02:40:56;;;;;;;9.45;4.82;;;8.40;99.90;;;;;;4923049;29;20058;-64
2021/05/14 02:43:23;;;;;;;6.63;5.28;;;8.40;99.90;;;;;;4922572;29;20052;-65
2021/05/14 02:45:50;;;;;;;6.20;4.32;;;8.40;99.90;;;;;;4926889;28;20442;-65
2021/05/14 02:48:20;;;;;;;6.18;4.57;;;8.40;99.90;;;;;;4923252;29;20043;-65
2021/05/14 02:50:47;;;;;;;13.27;5.32;;;8.50;99.90;;;;;;4921352;29;20557;-65
2021/05/14 02:53:14;;;;;;;6.90;4.50;;;8.50;99.90;;;;;;4929513;29;20491;-65
2021/05/14 02:55:40;;;;;;;5.30;4.63;;;8.50;99.90;;;;;;4921306;29;20067;-65
2021/05/14 02:58:07;;;;;;;5.13;4.43;;;8.50;99.90;;;;;;4927158;28;20040;-65
2021/05/14 03:00:34;;;;;;;5.55;4.65;;;8.50;99.90;;;;;;4924918;29;20063;-65
2021/05/14 03:03:01;;;;;;;5.30;4.80;;;8.50;99.90;;;;;;4926038;29;20379;-65
2021/05/14 03:05:28;;;;;;;4.68;4.30;;;8.60;99.90;;;;;;4924759;29;20051;-65
2021/05/14 03:07:55;;;;;;;9.77;5.03;;;8.60;99.90;;;;;;4924389;29;20095;-65
2021/05/14 03:10:22;;;;;;;8.25;5.38;;;8.60;99.90;;;;;;4924107;29;20036;-64
2021/05/14 03:12:49;;;;;;;9.75;4.15;;;8.60;99.90;;;;;;4928728;29;20493;-65
2021/05/14 03:15:16;;;;;;;10.55;5.05;;;8.70;99.90;;;;;;4923752;29;20099;-65
2021/05/14 03:17:43;;;;;;;5.60;4.70;;;8.70;99.90;;;;;;4922752;29;20075;-65
2021/05/14 03:20:11;;;;;;;8.73;4.65;;;8.80;99.90;;;;;;4926427;29;20138;-65
2021/05/14 03:22:38;;;;;;;4.72;4.32;;;8.80;99.90;;;;;;4919895;29;20047;-65
2021/05/14 03:25:08;;;;;;;5.63;3.97;;;8.80;99.90;;;;;;4930694;29;20055;-65
2021/05/14 03:27:35;;;;;;;5.57;4.35;;;8.80;99.90;;;;;;4927919;29;20051;-65
2021/05/14 03:30:04;;;;;;;7.10;4.53;;;8.90;99.90;;;;;;4922022;29;20054;-65
2021/05/14 03:32:31;;;;;;;7.15;5.78;;;9.00;99.90;;;;;;4924811;29;20047;-65
2021/05/14 03:34:58;;;;;;;6.32;5.53;;;9.00;99.90;;;;;;4921285;29;20055;-65
2021/05/14 03:37:24;;;;;;;8.35;5.00;;;9.00;99.90;;;;;;4925931;29;20367;-65
2021/05/14 03:39:52;;;;;;;4.70;4.30;;;9.10;99.90;;;;;;4925866;29;20494;-65
2021/05/14 03:42:25;;;;;;;11.23;3.60;;;9.10;99.90;;;;;;4921154;29;20048;-65
2021/05/14 03:44:53;;;;;;;8.32;3.88;;;9.20;99.90;;;;;;4924528;29;20063;-65
2021/05/14 03:47:22;;;;;;;7.38;4.60;;;9.20;99.90;;;;;;4924690;29;20173;-65
2021/05/14 03:49:49;;;;;;;5.30;4.55;;;9.30;99.90;;;;;;4929475;28;20055;-65
2021/05/14 03:52:17;;;;;;;7.65;4.50;;;9.40;99.90;;;;;;4930455;29;20107;-65
2021/05/14 03:54:44;;;;;;;9.25;4.00;;;9.40;99.90;;;;;;4929574;29;20051;-65
2021/05/14 03:57:12;;;;;;;8.60;3.75;;;9.50;99.90;;;;;;4925596;29;20501;-65
2021/05/14 03:59:57;;;;;;;4.47;3.97;;;9.50;99.90;;;;;;4932542;29;20070;-65
2021/05/14 04:02:24;;;;;;;7.05;4.03;;;9.60;99.90;;;;;;4924048;29;20043;-65
2021/05/14 04:04:52;;;;;;;4.53;3.25;;;9.70;99.90;;;;;;4930295;29;20058;-65
2021/05/14 04:07:21;;;;;;;20.65;4.18;;;9.80;99.90;;;;;;4929321;28;20059;-64
2021/05/14 04:10:01;;;;;;;5.90;3.72;;;9.90;99.90;;;;;;4922252;29;20048;-65
2021/05/14 04:15:09;;;;;;;3.40;2.97;;;10.10;99.90;;;;;;4945447;28;20185;-65
2021/05/14 04:17:37;;;;;;;4.93;3.03;;;10.30;99.90;;;;;;4923916;29;20047;-64
2021/05/14 04:20:05;;;;;;;8.40;3.30;;;10.40;99.90;;;;;;4933195;28;20056;-65
2021/05/14 04:22:33;;;;;;;13.13;3.50;;;10.50;99.90;;;;;;4939495;28;20106;-65
2021/05/14 04:25:00;;;;;;;5.72;3.42;;;10.50;99.90;;;;;;4928120;29;20067;-64
2021/05/14 04:27:27;;;;;;;7.57;2.97;;;10.60;99.90;;;;;;4928838;29;20067;-65
2021/05/14 04:29:54;;;;;;;6.20;3.33;;;10.70;99.90;;;;;;4930044;29;20047;-64
2021/05/14 04:32:21;;;;;;;6.28;2.60;;;10.80;99.90;;;;;;4924633;29;20054;-65
2021/05/14 04:34:48;;;;;;;5.28;2.30;;;10.90;99.90;;;;;;4927729;29;20064;-65
2021/05/14 04:37:15;;;;;;;3.55;2.20;;;11.00;99.90;;;;;;4921863;29;20056;-64
2021/05/14 04:39:42;;;;;;;3.60;2.15;;;11.10;99.90;;;;;;4923245;29;20055;-64
2021/05/14 04:42:09;;;;;;;4.28;2.05;;;11.20;99.90;;;;;;4920404;28;20063;-65
2021/05/14 04:44:36;;;;;;;7.15;2.97;;;11.30;99.90;;;;;;4920929;29;20070;-64
2021/05/14 04:47:03;;;;;;;4.70;2.83;;;11.40;99.90;;;;;;4929885;29;20059;-65
2021/05/14 04:49:30;;;;;;;6.38;2.92;;;11.50;99.90;;;;;;4926498;28;20047;-65
2021/05/14 04:51:58;;;;;;;5.97;3.05;;;11.60;99.90;;;;;;4926407;29;20729;-64
2021/05/14 04:54:26;;;;;;;3.85;2.13;;;11.70;99.90;;;;;;4928274;29;20067;-64
2021/05/14 04:56:53;;;;;;;5.65;2.30;;;11.80;99.90;;;;;;4924525;29;20067;-65
2021/05/14 04:59:20;;;;;;;4.45;1.95;;;11.90;99.90;;;;;;4927639;29;20899;-64
2021/05/14 05:01:47;;;;;;;4.78;2.60;;;12.00;99.90;;;;;;4925177;29;20051;-64
2021/05/14 05:04:16;;;;;;;5.15;2.00;;;12.10;99.90;;;;;;4922816;29;20143;-65
2021/05/14 05:06:43;;;;;;;13.63;2.50;;;12.20;99.90;;;;;;4927051;28;20039;-64
2021/05/14 05:09:10;;;;;;;4.78;2.53;;;12.20;99.90;;;;;;4927015;29;20051;-64
2021/05/14 05:11:37;;;;;;;4.47;2.35;;;12.20;99.90;;;;;;4929024;29;20051;-64
2021/05/14 05:14:04;;;;;;;6.65;2.92;;;12.20;99.90;;;;;;4911644;29;20494;-64
2021/05/14 05:16:31;;;;;;;6.22;2.55;;;12.20;99.90;;;;;;4924635;29;20106;-64
2021/05/14 05:18:58;;;;;;;4.05;2.92;;;12.30;99.90;;;;;;4925499;29;20085;-64
2021/05/14 05:21:25;;;;;;;3.03;2.45;;;12.30;99.90;;;;;;4924374;29;20055;-65
2021/05/14 05:23:52;;;;;;;2.80;2.60;;;12.30;99.90;;;;;;4916634;29;20226;-64
2021/05/14 05:26:19;;;;;;;5.43;2.88;;;12.30;99.90;;;;;;4916143;29;20052;-65
2021/05/14 05:28:46;;;;;;;4.43;2.83;;;12.40;99.90;;;;;;4925784;29;20044;-64
2021/05/14 05:31:13;;;;;;;2.35;2.15;;;12.40;99.90;;;;;;4924439;28;20134;-64
2021/05/14 05:33:40;;;;;;;8.00;3.22;;;12.40;99.90;;;;;;4930839;29;20122;-64
2021/05/14 05:36:07;;;;;;;6.68;3.15;;;12.40;99.90;;;;;;4924033;29;20047;-65
2021/05/14 05:38:34;;;;;;;9.13;3.03;;;12.40;99.90;;;;;;4926746;28;20075;-65
2021/05/14 05:41:01;;;;;;;8.45;2.33;;;12.40;99.90;;;;;;4942945;28;20042;-65
2021/05/14 05:43:28;;;;;;;5.30;2.88;;;12.40;99.90;;;;;;4926570;29;20048;-65
2021/05/14 05:45:55;;;;;;;6.78;2.85;;;12.40;99.90;;;;;;4924640;29;20043;-65
2021/05/14 05:48:22;;;;;;;3.75;2.72;;;12.50;99.90;;;;;;4923186;29;20469;-65
2021/05/14 05:50:50;;;;;;;3.42;2.50;;;12.50;99.90;;;;;;4926119;29;20083;-65
2021/05/14 05:53:17;;;;;;;4.97;4.28;;;12.50;99.90;;;;;;4926773;29;20068;-65
2021/05/14 05:55:44;;;;;;;4.55;2.75;;;12.60;99.90;;;;;;4924384;29;20795;-65
2021/05/14 05:58:13;;;;;;;4.00;2.95;;;12.70;99.90;;;;;;4926869;28;20056;-65
2021/05/14 06:00:40;;;;;;;4.35;3.50;;;12.70;99.90;;;;;;4931221;28;20109;-65
2021/05/14 06:03:10;;;;;;;2.78;2.35;;;12.70;99.90;;;;;;4926265;29;20040;-65
2021/05/14 06:05:42;;;;;;;5.35;2.75;;;12.70;99.90;;;;;;4922005;29;20119;-65
2021/05/14 06:08:09;;;;;;;3.40;2.40;;;12.70;99.90;;;;;;4926665;29;20044;-64
2021/05/14 06:10:36;;;;;;;3.92;2.75;;;12.70;99.90;;;;;;4921791;29;20108;-65
2021/05/14 06:13:04;;;;;;;4.93;2.25;;;12.80;99.90;;;;;;941714;28;10002764;-64
2021/05/14 06:15:31;;;;;;;6.45;3.25;;;12.80;99.90;;;;;;4929034;29;20051;-64
2021/05/14 06:17:58;;;;;;;4.82;3.42;;;12.80;99.90;;;;;;4920571;29;20047;-65
2021/05/14 06:20:27;;;;;;;3.47;2.80;;;12.90;99.90;;;;;;4924248;29;24210;-65
2021/05/14 06:22:55;;;;;;;5.15;2.75;;;12.90;99.90;;;;;;4925318;29;20541;-65
2021/05/14 06:25:27;;;;;;;4.25;3.08;;;13.00;99.90;;;;;;4924468;29;20561;-64
2021/05/14 06:27:54;;;;;;;15.23;2.78;;;13.00;99.90;;;;;;4929515;29;20039;-65
2021/05/14 06:30:21;;;;;;;4.85;2.72;;;13.00;99.90;;;;;;4923098;28;20060;-65
2021/05/14 06:32:48;;;;;;;7.90;2.63;;;13.10;99.90;;;;;;4920332;29;20065;-64
2021/05/14 06:35:15;;;;;;;2.38;2.15;;;13.10;99.90;;;;;;4911601;29;20074;-65
2021/05/14 06:37:44;;;;;;;3.72;2.78;;;13.10;99.90;;;;;;4921627;29;20410;-65
2021/05/14 06:40:12;;;;;;;3.10;2.63;;;13.20;99.90;;;;;;4922001;29;20048;-65
2021/05/14 06:42:39;;;;;;;7.65;2.78;;;13.20;99.90;;;;;;4924587;28;20059;-65
2021/05/14 06:45:07;;;;;;;4.00;2.45;;;13.20;99.90;;;;;;4921851;29;20131;-65
2021/05/14 06:47:34;;;;;;;3.47;2.42;;;13.20;99.90;;;;;;4926874;29;20501;-65
2021/05/14 06:50:05;;;;;;;5.85;2.08;;;13.20;99.90;;;;;;4941602;28;20103;-65
2021/05/14 06:52:33;;;;;;;2.10;1.80;;;13.20;99.90;;;;;;4921241;29;20056;-65
2021/05/14 06:55:06;;;;;;;4.22;2.38;;;13.20;99.90;;;;;;4926150;29;20373;-65
2021/05/14 06:57:33;;;;;;;7.50;2.67;;;13.10;99.90;;;;;;4940825;28;20048;-65
2021/05/14 07:00:00;;;;;;;5.45;2.38;;;13.10;99.90;;;;;;4926088;29;20102;-65
2021/05/14 07:02:27;;;;;;;7.30;2.67;;;13.00;99.90;;;;;;4929095;28;20071;-65
2021/05/14 07:04:54;;;;;;;3.97;2.25;;;13.00;99.90;;;;;;4922529;29;20047;-65
2021/05/14 07:07:21;;;;;;;2.90;2.05;;;12.90;99.90;;;;;;4915382;29;20052;-64
2021/05/14 07:09:48;;;;;;;5.13;2.30;;;12.90;99.90;;;;;;4924289;29;20052;-65
2021/05/14 07:12:15;;;;;;;4.53;2.70;;;12.90;99.90;;;;;;4923076;29;20213;-65
2021/05/14 07:14:42;;;;;;;3.55;2.65;;;12.80;99.90;;;;;;4930200;29;20059;-64
2021/05/14 07:17:14;;;;;;;4.20;3.13;;;12.80;99.90;;;;;;4924381;29;20135;-65
2021/05/14 07:19:41;;;;;;;3.88;2.35;;;12.80;99.90;;;;;;4922786;29;20139;-65
2021/05/14 07:22:08;;;;;;;3.95;3.20;;;12.70;99.90;;;;;;4927249;28;20443;-65
2021/05/14 07:24:35;;;;;;;6.28;2.42;;;12.60;99.90;;;;;;4926421;29;20051;-65
2021/05/14 07:27:04;;;;;;;2.80;2.60;;;12.50;99.90;;;;;;4928219;29;20500;-65
2021/05/14 07:29:31;;;;;;;3.97;3.67;;;12.40;99.90;;;;;;4936324;29;20051;-65
2021/05/14 07:31:58;;;;;;;4.03;2.72;;;12.40;99.90;;;;;;4927828;29;20699;-65
2021/05/14 07:34:29;;;;;;;3.22;3.00;;;12.40;99.90;;;;;;4932302;28;20083;-65
2021/05/14 07:37:03;;;;;;;3.42;2.80;;;12.30;99.90;;;;;;4922358;29;20052;-65
2021/05/14 07:39:30;;;;;;;2.92;2.70;;;12.30;99.90;;;;;;4926382;28;20103;-65
2021/05/14 07:41:57;;;;;;;6.45;3.33;;;12.20;99.90;;;;;;4928788;29;20075;-65
2021/05/14 07:44:24;;;;;;;3.30;2.60;;;12.20;99.90;;;;;;4930139;29;20055;-65
2021/05/14 07:46:52;;;;;;;5.07;3.05;;;12.20;99.90;;;;;;4929099;29;20047;-65
2021/05/14 07:49:19;;;;;;;5.97;3.97;;;12.20;99.90;;;;;;4928373;29;20624;-65
2021/05/14 07:51:46;;;;;;;4.50;3.25;;;12.30;99.90;;;;;;4927337;29;20051;-65
2021/05/14 07:54:13;;;;;;;3.75;3.45;;;12.30;99.90;;;;;;4928159;29;20545;-66
2021/05/14 07:56:40;;;;;;;3.35;3.05;;;12.30;99.90;;;;;;4928442;29;20059;-65
2021/05/14 07:59:16;;;;;;;3.25;2.97;;;12.40;99.90;;;;;;4926331;29;20051;-65
2021/05/14 08:01:42;;;;;;;3.83;2.65;;;12.40;99.90;;;;;;4930012;29;20131;-65
2021/05/14 08:04:10;;;;;;;10.52;3.25;;;12.50;99.90;;;;;;4930303;29;20054;-64
2021/05/14 08:06:37;;;;;;;5.32;3.00;;;12.50;99.90;;;;;;4923445;28;20040;-65
2021/05/14 08:09:07;;;;;;;6.78;3.20;;;12.60;99.90;;;;;;4930636;28;20063;-65
2021/05/14 08:11:34;;;;;;;;;;;12.60;99.90;;;;;;4929364;29;20043;-65
2021/05/14 08:14:01;;;;;;;5.00;3.17;;;12.70;99.90;;;;;;4925246;29;19978;-65
2021/05/14 08:16:28;;;;;;;4.82;3.40;;;12.70;99.90;;;;;;4926461;29;20048;-65
2021/05/14 08:18:56;;;;;;;3.78;3.40;;;12.70;99.90;;;;;;4927807;29;20664;-64
2021/05/14 08:21:23;;;;;;;3.65;3.35;;;12.80;99.90;;;;;;4924808;29;20091;-65
2021/05/14 08:23:50;;;;;;;7.00;3.22;;;12.80;99.90;;;;;;4918230;29;20741;-64
2021/05/14 08:26:17;;;;;;;5.47;2.92;;;12.90;99.90;;;;;;4922523;29;20052;-65
2021/05/14 08:28:44;;;;;;;3.28;2.63;;;12.90;99.90;;;;;;4923603;29;20052;-65
2021/05/14 08:31:11;;;;;;;6.03;3.03;;;13.00;99.90;;;;;;4930821;28;20036;-65
2021/05/14 08:33:38;;;;;;;4.47;3.03;;;12.90;99.90;;;;;;4924087;29;20181;-65
2021/05/14 08:36:05;;;;;;;3.33;3.10;;;13.00;99.90;;;;;;4925612;29;20036;-65
2021/05/14 08:38:33;;;;;;;4.88;4.47;;;12.90;99.90;;;;;;4926009;29;20059;-65
2021/05/14 08:41:07;;;;;;;3.40;2.92;;;12.60;99.90;;;;;;4926460;28;20054;-65
2021/05/14 08:43:35;;;;;;;4.30;3.70;;;12.50;99.90;;;;;;4931579;28;20057;-65
2021/05/14 08:46:02;;;;;;;3.92;3.60;;;12.50;99.90;;;;;;4930597;29;20047;-64
2021/05/14 08:48:38;;;;;;;5.20;2.85;;;12.50;99.90;;;;;;4924749;28;20104;-65
2021/05/14 08:51:07;;;;;;;4.13;3.45;;;12.60;99.90;;;;;;4924266;29;20661;-64
2021/05/14 08:53:37;;;;;;;3.17;2.88;;;12.80;99.90;;;;;;4930292;29;20039;-65
2021/05/14 08:56:05;;;;;;;3.00;2.70;;;12.80;99.90;;;;;;4926200;29;20130;-65
2021/05/14 08:58:32;;;;;;;3.92;3.60;;;12.80;99.90;;;;;;4925758;29;20553;-65
2021/05/14 09:00:59;;;;;;;9.00;3.45;;;12.80;99.90;;;;;;4926559;29;20051;-65
2021/05/14 09:03:27;;;;;;;4.90;3.88;;;12.70;99.90;;;;;;4931536;29;20121;-65
2021/05/14 09:05:55;;;;;;;4.10;3.70;;;12.60;99.90;;;;;;4933220;29;20070;-65
2021/05/14 09:08:29;;;;;;;4.10;3.70;;;12.70;99.90;;;;;;4924981;29;20058;-65
2021/05/14 09:10:57;;;;;;;4.15;2.92;;;12.50;99.90;;;;;;4926851;29;20043;-65
2021/05/14 09:13:35;;;;;;;6.50;3.50;;;12.50;99.90;;;;;;4930926;29;20534;-65
2021/05/14 09:16:03;;;;;;;2.95;2.75;;;12.60;99.90;;;;;;4926576;29;20147;-64
2021/05/14 09:18:30;;;;;;;5.82;2.88;;;12.50;99.90;;;;;;4921859;29;20072;-65
2021/05/14 09:21:02;;;;;;;4.15;3.63;;;12.50;99.90;;;;;;4931968;28;20050;-65
2021/05/14 09:23:34;;;;;;;6.03;3.50;;;12.40;99.90;;;;;;4910846;29;20486;-64
2021/05/14 09:26:04;;;;;;;8.35;3.80;;;12.30;99.90;;;;;;4925741;29;20054;-65
2021/05/14 09:28:47;;;;;;;4.95;2.83;;;12.30;99.90;;;;;;4926388;29;20039;-64
2021/05/14 09:31:19;;;;;;;3.55;3.25;;;12.20;99.90;;;;;;4927450;28;20120;-65
2021/05/14 09:33:49;;;;;;;6.13;3.17;;;12.10;99.90;;;;;;4922493;29;20099;-65
2021/05/14 09:36:23;;;;;;;10.10;3.50;;;12.10;99.90;;;;;;4926080;29;20065;-65
2021/05/14 09:39:00;;;;;;;3.88;3.55;;;12.20;99.90;;;;;;4924259;28;20170;-64
2021/05/14 09:41:28;;;;;;;3.63;3.30;;;12.10;99.90;;;;;;4929510;29;20054;-64
2021/05/14 09:44:01;;;;;;;5.70;3.90;;;12.20;99.90;;;;;;4927095;29;20044;-64
2021/05/14 09:46:35;;;;;;;4.55;3.45;;;12.10;99.90;;;;;;4920434;29;20091;-65
2021/05/14 09:49:09;;;;;;;5.03;3.85;;;12.20;99.90;;;;;;4928140;29;20044;-65
2021/05/14 09:51:49;;;;;;;12.02;4.10;;;12.30;99.90;;;;;;4926162;29;20055;-64
2021/05/14 09:54:38;;;;;;;13.10;3.73;;;12.40;99.90;;;;;;4908599;29;20107;-65
2021/05/14 09:59:55;;;;;;;10.00;4.25;;;12.80;99.90;;;;;;4930917;29;20035;-64
2021/05/14 10:02:33;;;;;;;3.60;3.00;;;12.80;99.90;;;;;;4922891;29;20449;-65
2021/05/14 10:05:06;;;;;;;6.78;4.10;;;12.90;99.90;;;;;;4925405;29;20096;-65
2021/05/14 10:07:36;;;;;;;6.93;4.50;;;13.00;99.90;;;;;;4926557;28;20051;-65
2021/05/14 10:10:09;;;;;;;6.65;4.28;;;13.10;99.90;;;;;;4906295;29;20133;-65
2021/05/14 10:12:36;;;;;;;3.75;3.20;;;13.10;99.90;;;;;;4918370;29;20077;-64
2021/05/14 10:15:07;;;;;;;6.00;3.47;;;13.20;99.90;;;;;;4930555;29;20082;-65
2021/05/14 10:17:39;;;;;;;;;;;13.20;99.90;;;;;;4922117;29;20047;-65
2021/05/14 10:20:12;;;;;;;4.22;3.70;;;13.20;99.90;;;;;;4925824;29;19923;-65
2021/05/14 10:22:39;;;;;;;6.43;4.18;;;13.00;99.90;;;;;;4923268;29;20130;-64
2021/05/14 10:25:07;;;;;;;4.68;4.15;;;13.10;99.90;;;;;;4925231;29;20046;-64
2021/05/14 10:27:46;;;;;;;5.13;3.85;;;13.00;99.90;;;;;;4929459;29;20564;-65
2021/05/14 10:30:14;;;;;;;4.32;3.75;;;12.90;99.90;;;;;;4923894;29;20043;-64
2021/05/14 10:32:43;;;;;;;5.70;3.80;;;13.00;99.90;;;;;;4921401;29;20055;-64
2021/05/14 10:35:13;;;;;;;;;;;13.00;99.90;;;;;;4933058;28;20040;-64
2021/05/14 10:37:50;;;;;;;9.15;4.05;;;13.20;99.90;;;;;;4926717;28;19923;-65
2021/05/14 10:42:58;;;;;;;6.85;3.85;;;13.30;99.90;;;;;;4928539;29;20047;-64
2021/05/14 10:45:36;;;;;;;5.35;3.75;;;13.40;99.90;;;;;;4922893;29;20050;-64
2021/05/14 10:48:16;;;;;;;4.18;3.03;;;13.50;99.90;;;;;;4922414;29;20050;-65
2021/05/14 10:50:57;;;;;;;5.38;3.30;;;13.50;99.90;;;;;;4923137;29;20067;-64
2021/05/14 10:53:29;;;;;;;4.95;4.05;;;13.50;99.90;;;;;;4925623;28;20048;-64
2021/05/14 10:56:16;;;;;;;3.22;2.85;;;13.20;99.90;;;;;;4924928;29;20122;-64
2021/05/14 10:58:50;;;;;;;4.13;3.33;;;13.30;99.90;;;;;;4920315;29;20054;-64
2021/05/14 11:01:35;;;;;;;3.55;3.20;;;13.10;99.90;;;;;;4926427;29;20059;-65
2021/05/14 11:04:05;;;;;;;5.10;3.55;;;13.10;99.90;;;;;;4923258;29;20694;-65
2021/05/14 11:06:42;;;;;;;3.67;3.40;;;13.00;99.90;;;;;;4922698;29;20781;-65
2021/05/14 11:09:10;;;;;;;5.78;3.22;;;13.00;99.90;;;;;;4926984;29;20442;-64
2021/05/14 11:11:59;;;;;;;3.20;2.92;;;13.00;99.90;;;;;;4920120;29;20044;-64
2021/05/14 11:14:46;;;;;;;7.78;3.88;;;13.00;99.90;;;;;;4927962;29;20134;-64
2021/05/14 11:17:20;;;;;;;3.83;3.50;;;12.80;99.90;;;;;;4921988;29;20051;-64
2021/05/14 11:19:48;;;;;;;4.13;3.65;;;12.90;99.90;;;;;;4923146;29;20040;-64
2021/05/14 11:22:17;;;;;;;6.13;3.60;;;12.80;99.90;;;;;;4924077;28;20047;-65
2021/05/14 11:25:00;;;;;;;9.70;3.85;;;12.90;99.90;;;;;;4922522;29;20074;-65
2021/05/14 11:27:36;;;;;;;5.57;3.42;;;12.60;99.90;;;;;;4926629;29;20085;-64
2021/05/14 11:30:07;;;;;;;7.00;3.88;;;12.50;99.90;;;;;;4924459;29;20289;-64
2021/05/14 11:32:55;;;;;;;4.43;3.90;;;12.40;99.90;;;;;;4925270;29;20115;-65
2021/05/14 11:35:24;;;;;;;4.70;3.88;;;12.50;99.90;;;;;;4925217;29;20055;-64
2021/05/14 11:38:00;;;;;;;5.25;3.65;;;12.50;99.90;;;;;;4932205;29;20126;-64
2021/05/14 11:40:31;;;;;;;3.97;3.47;;;12.50;99.90;;;;;;4929745;29;20524;-65
2021/05/14 11:43:00;;;;;;;4.30;3.83;;;12.80;99.90;;;;;;4921767;29;20083;-65
2021/05/14 11:45:28;;;;;;;5.63;3.58;;;13.10;99.90;;;;;;4922241;29;20044;-64
2021/05/14 11:48:00;;;;;;;5.47;3.67;;;13.40;99.90;;;;;;4922822;29;20047;-64
2021/05/14 11:50:58;;;;;;;4.88;3.92;;;13.40;99.90;;;;;;4918621;29;20040;-65
2021/05/14 11:53:26;;;;;;;3.80;3.15;;;13.50;99.90;;;;;;4920791;29;20750;-64
2021/05/14 11:55:54;;;;;;;4.57;3.35;;;13.40;99.90;;;;;;4925940;29;20051;-64
2021/05/14 11:58:24;;;;;;;6.40;3.72;;;13.40;99.90;;;;;;4922061;28;20051;-64
2021/05/14 12:00:52;;;;;;;4.28;3.03;;;13.20;99.90;;;;;;4923544;29;20055;-64
2021/05/14 12:03:23;;;;;;;4.30;3.90;;;12.90;99.90;;;;;;4928523;29;20051;-64
2021/05/14 12:05:51;;;;;;;3.90;3.58;;;12.80;99.90;;;;;;4920091;28;20047;-64
2021/05/14 12:08:20;;;;;;;6.72;3.75;;;12.80;99.90;;;;;;4919252;29;20047;-64
2021/05/14 12:10:50;;;;;;;5.13;4.63;;;12.80;99.90;;;;;;4927118;29;20044;-65
2021/05/14 12:13:19;;;;;;;4.47;3.30;;;12.90;99.90;;;;;;4926464;29;20413;-64
2021/05/14 12:15:55;;;;;;;8.23;3.58;;;13.10;99.90;;;;;;4932956;29;20052;-64
2021/05/14 12:18:23;;;;;;;3.65;3.15;;;13.40;99.90;;;;;;4924546;29;20119;-65
2021/05/14 12:20:50;;;;;;;7.90;3.78;;;13.40;99.90;;;;;;4924113;29;20099;-64
2021/05/14 12:23:21;;;;;;;6.68;3.65;;;13.60;99.90;;;;;;4936573;28;20103;-64
2021/05/14 12:25:51;;;;;;;5.95;3.50;;;13.90;99.90;;;;;;4924209;29;20048;-65
2021/05/14 12:28:33;;;;;;;3.97;2.60;;;14.10;99.90;;;;;;4942689;28;20066;-64
2021/05/14 12:31:10;;;;;;;4.15;3.75;;;14.20;99.90;;;;;;4925000;29;21072;-64
2021/05/14 12:34:10;;;;;;;3.10;2.80;;;14.20;99.90;;;;;;4929033;29;20124;-64
2021/05/14 12:36:43;;;;;;;2.90;2.60;;;13.90;99.90;;;;;;4925274;28;20063;-64
2021/05/14 12:39:12;;;;;;;3.28;3.03;;;14.00;99.90;;;;;;4931943;29;20363;-64
2021/05/14 12:41:41;;;;;;;4.28;3.13;;;13.70;99.90;;;;;;4931689;29;20477;-64
2021/05/14 12:44:13;;;;;;;3.30;2.90;;;13.90;99.90;;;;;;4926073;29;20047;-64
2021/05/14 12:47:00;;;;;;;3.75;3.13;;;14.20;99.90;;;;;;4930646;28;20059;-64
2021/05/14 12:49:51;;;;;;;5.07;3.42;;;14.40;99.90;;;;;;4929864;29;20047;-64
2021/05/14 12:52:26;;;;;;;4.53;3.13;;;14.30;99.90;;;;;;4914196;29;20047;-64
2021/05/14 12:54:54;;;;;;;4.00;3.60;;;14.30;99.90;;;;;;4930529;29;20158;-64
2021/05/14 12:57:23;;;;;;;2.97;2.60;;;14.00;99.90;;;;;;4931166;29;20051;-64
2021/05/14 12:59:51;;;;;;;5.13;3.38;;;13.80;99.90;;;;;;4924859;28;20051;-64
2021/05/14 13:02:25;;;;;;;5.18;2.58;;;13.70;99.90;;;;;;4923439;29;20052;-64
2021/05/14 13:05:12;;;;;;;3.63;2.65;;;13.50;99.90;;;;;;4931208;28;20052;-64
2021/05/14 13:07:57;;;;;;;5.80;3.05;;;13.60;99.90;;;;;;4925874;29;20544;-64
2021/05/14 13:10:45;;;;;;;3.05;2.38;;;14.00;99.90;;;;;;4923517;29;20155;-63